createdAt,value
2022-12-14T00:00:00.000Z,30.64
2022-12-14T00:15:00.000Z,29.12
2022-12-14T00:30:00.000Z,28.49
2022-12-14T00:45:00.000Z,28.51
2022-12-14T01:00:00.000Z,28.65
2022-12-14T01:15:00.000Z,27.62
2022-12-14T01:45:00.000Z,28
2022-12-14T01:45:00.000Z,27.56
2022-12-14T02:00:00.000Z,27.2
2022-12-14T02:15:00.000Z,27.28
2022-12-14T02:30:00.000Z,27.49
2022-12-14T02:45:00.000Z,27.46
2022-12-14T03:00:00.000Z,27.22
2022-12-14T03:15:00.000Z,26.92
2022-12-14T03:30:00.000Z,26.36
2022-12-14T03:45:00.000Z,28.15
2022-12-14T04:15:00.000Z,27
2022-12-14T04:15:00.000Z,26.95
2022-12-14T04:30:00.000Z,27
2022-12-14T04:45:00.000Z,27
2022-12-14T05:00:00.000Z,27.51
2022-12-14T05:15:00.000Z,27.64
2022-12-14T05:30:00.000Z,28.72
2022-12-14T05:45:00.000Z,30.25
2022-12-14T06:00:00.000Z,33.85
2022-12-14T06:15:00.000Z,33.59
2022-12-14T06:30:00.000Z,31.41
2022-12-14T06:45:00.000Z,32.81
2022-12-14T07:00:00.000Z,32.18
2022-12-14T07:15:00.000Z,32.11
2022-12-14T07:30:00.000Z,32.59
2022-12-14T07:45:00.000Z,33.13
2022-12-14T08:00:00.000Z,40.31
2022-12-14T08:15:00.000Z,35.73
2022-12-14T08:30:00.000Z,35.34
2022-12-14T08:45:00.000Z,33.87
2022-12-14T09:00:00.000Z,35.09
2022-12-14T09:15:00.000Z,31.93
2022-12-14T09:30:00.000Z,29.08
2022-12-14T09:45:00.000Z,29.69
2022-12-14T10:00:00.000Z,26.35
2022-12-14T10:15:00.000Z,24.82
2022-12-14T10:45:00.000Z,24.76
2022-12-14T11:00:00.000Z,19.05
2022-12-14T11:15:00.000Z,19.78
2022-12-14T11:30:00.000Z,17.21
2022-12-14T11:45:00.000Z,29.52
2022-12-14T12:00:00.000Z,33.36
2022-12-14T12:15:00.000Z,33.36
2022-12-14T12:30:00.000Z,33.24
2022-12-14T12:45:00.000Z,32.2
2022-12-14T13:00:00.000Z,31.47
2022-12-14T13:15:00.000Z,31.6
2022-12-14T13:30:00.000Z,32.44
2022-12-14T13:45:00.000Z,32.24
2022-12-14T14:00:00.000Z,33.73
2022-12-14T14:15:00.000Z,32.99
2022-12-14T14:30:00.000Z,37.89
2022-12-14T14:45:00.000Z,41.29
2022-12-14T15:00:00.000Z,37.6
2022-12-14T15:15:00.000Z,33.52
2022-12-14T15:30:00.000Z,33.73
2022-12-14T15:45:00.000Z,37.05
2022-12-14T16:00:00.000Z,38.78
2022-12-14T16:15:00.000Z,36.59
2022-12-14T16:30:00.000Z,35.27
2022-12-14T16:45:00.000Z,38.24
2022-12-14T17:00:00.000Z,37.53
2022-12-14T17:15:00.000Z,38.14
2022-12-14T17:30:00.000Z,41.54
2022-12-14T17:45:00.000Z,45.27
2022-12-14T18:00:00.000Z,42.15
2022-12-14T18:15:00.000Z,28.69
2022-12-14T18:30:00.000Z,19.24
2022-12-14T18:45:00.000Z,14.8
2022-12-14T19:00:00.000Z,9.95
2022-12-14T19:15:00.000Z,8.58
2022-12-14T19:30:00.000Z,8.22
2022-12-14T19:45:00.000Z,8.11
2022-12-14T20:00:00.000Z,8.32
2022-12-14T20:15:00.000Z,11.05
2022-12-14T20:30:00.000Z,9.91
2022-12-14T20:45:00.000Z,11.56
2022-12-14T21:00:00.000Z,11.48
2022-12-14T21:15:00.000Z,11.78
2022-12-14T21:30:00.000Z,12.25
2022-12-14T21:45:00.000Z,13.07
2022-12-14T22:15:00.000Z,18
2022-12-14T22:15:00.000Z,23.81
2022-12-14T22:30:00.000Z,20.73
2022-12-14T22:45:00.000Z,22.08
2022-12-14T23:00:00.000Z,23.09
2022-12-14T23:15:00.000Z,23.48
2022-12-14T23:30:00.000Z,25.11
2022-12-14T23:45:00.000Z,22.93
